Time;durP1;ratioP1;P1;durP2;ratioP2;P2;SDS_P1;SDS_P2;PMS_P1;PMS_P2;Temp;Humidity;BMP_temperature;BMP_pressure;BME280_temperature;BME280_humidity;BME280_pressure;Samples;Min_cycle;Max_cycle;Signal;HPM_P1;HPM_P2
2022/02/15 00:00:47;;;;;;;8.27;5.43;;;11.60;84.50;;;;;;5112326;27;20570;-64
2022/02/15 00:03:14;;;;;;;7.78;5.40;;;11.60;84.70;;;;;;5111873;27;20219;-63
2022/02/15 00:05:41;;;;;;;6.60;5.70;;;11.60;85.00;;;;;;5112828;27;20229;-63
2022/02/15 00:08:08;;;;;;;8.75;6.47;;;11.50;84.90;;;;;;5109756;28;20220;-63
2022/02/15 00:10:35;;;;;;;6.07;5.13;;;11.50;85.20;;;;;;5101748;28;20223;-64
2022/02/15 00:13:03;;;;;;;5.13;4.63;;;11.40;85.20;;;;;;5100832;27;20215;-63
2022/02/15 00:15:31;;;;;;;9.38;5.28;;;11.50;85.40;;;;;;5108962;27;20314;-63
2022/02/15 00:17:59;;;;;;;7.10;6.28;;;11.50;85.30;;;;;;5111826;27;20224;-63
2022/02/15 00:20:27;;;;;;;5.53;4.80;;;11.50;85.20;;;;;;5111576;28;20557;-63
2022/02/15 00:22:54;;;;;;;5.97;4.75;;;11.50;85.40;;;;;;5110844;28;20294;-63
2022/02/15 00:25:21;;;;;;;4.95;4.45;;;11.50;85.40;;;;;;5110985;27;20223;-63
2022/02/15 00:27:48;;;;;;;8.98;7.28;;;11.50;85.50;;;;;;5112180;27;20747;-64
2022/02/15 00:30:15;;;;;;;8.80;6.65;;;11.50;85.70;;;;;;5111311;27;20277;-62
2022/02/15 00:32:42;;;;;;;10.60;6.55;;;11.50;85.70;;;;;;5111899;27;20234;-63
2022/02/15 00:35:10;;;;;;;11.45;8.50;;;11.50;85.70;;;;;;5111407;27;20234;-63
2022/02/15 00:37:37;;;;;;;15.80;9.48;;;11.50;85.90;;;;;;5111653;28;20304;-64
2022/02/15 00:40:06;;;;;;;25.45;19.02;;;11.40;86.00;;;;;;5111046;27;20231;-63
2022/02/15 00:42:33;;;;;;;34.00;21.48;;;11.50;86.20;;;;;;5110791;28;20230;-63
2022/02/15 00:44:59;;;;;;;8.07;6.93;;;11.50;86.30;;;;;;5098175;28;20223;-63
2022/02/15 00:47:26;;;;;;;41.60;31.08;;;11.40;86.40;;;;;;5110599;27;20566;-63
2022/02/15 00:49:56;;;;;;;24.58;18.55;;;11.50;86.80;;;;;;5111592;28;20540;-64
2022/02/15 00:52:25;;;;;;;24.38;16.58;;;11.50;86.90;;;;;;5111314;27;20219;-63
2022/02/15 00:54:52;;;;;;;32.50;21.13;;;11.50;86.90;;;;;;5099002;27;20223;-63
2022/02/15 00:57:18;;;;;;;8.75;7.20;;;11.50;87.00;;;;;;5115193;27;20218;-63
2022/02/15 00:59:45;;;;;;;6.43;5.70;;;11.40;87.10;;;;;;5102270;28;20314;-63
2022/02/15 01:02:12;;;;;;;6.95;4.90;;;11.40;87.30;;;;;;5113168;27;20221;-63
2022/02/15 01:04:39;;;;;;;8.70;5.05;;;11.50;87.40;;;;;;5100976;27;20237;-63
2022/02/15 01:07:06;;;;;;;6.75;5.28;;;11.50;87.40;;;;;;5113866;27;20223;-63
2022/02/15 01:09:34;;;;;;;11.43;7.18;;;11.40;87.60;;;;;;5115347;27;20226;-63
2022/02/15 01:12:02;;;;;;;12.63;10.38;;;11.40;87.70;;;;;;5114931;28;20244;-63
2022/02/15 01:14:29;;;;;;;16.13;9.25;;;11.40;88.00;;;;;;5103370;28;20215;-63
2022/02/15 01:16:55;;;;;;;10.85;8.55;;;11.30;88.20;;;;;;5116004;28;20684;-63
2022/02/15 01:19:22;;;;;;;8.65;6.97;;;11.30;88.40;;;;;;5114128;28;20302;-63
2022/02/15 01:21:49;;;;;;;8.00;6.22;;;11.30;88.50;;;;;;5115249;28;20215;-63
2022/02/15 01:24:16;;;;;;;20.83;16.52;;;11.30;88.60;;;;;;5115255;27;20223;-63
2022/02/15 01:26:44;;;;;;;8.55;6.88;;;11.30;88.70;;;;;;5115857;27;20219;-62
2022/02/15 01:29:11;;;;;;;7.53;5.35;;;11.30;88.90;;;;;;5115840;27;20219;-63
2022/02/15 01:31:38;;;;;;;5.55;5.03;;;11.30;89.20;;;;;;5115415;27;20237;-63
2022/02/15 01:34:05;;;;;;;5.60;4.90;;;11.30;89.20;;;;;;5115784;27;20693;-64
2022/02/15 01:36:32;;;;;;;6.25;5.53;;;11.30;89.30;;;;;;5115467;27;20234;-63
2022/02/15 01:38:59;;;;;;;6.78;6.18;;;11.30;89.50;;;;;;5115745;27;20226;-63
2022/02/15 01:41:25;;;;;;;5.43;4.78;;;11.30;89.70;;;;;;5115056;27;20227;-63
2022/02/15 01:43:54;;;;;;;10.60;5.47;;;11.30;89.90;;;;;;5115652;27;20301;-63
2022/02/15 01:46:21;;;;;;;8.57;5.43;;;11.20;90.00;;;;;;5115482;27;20234;-63
2022/02/15 01:48:48;;;;;;;7.05;5.55;;;11.20;90.10;;;;;;5115687;27;20219;-63
2022/02/15 01:51:15;;;;;;;10.40;7.45;;;11.20;90.20;;;;;;5115443;27;20252;-63
2022/02/15 01:53:43;;;;;;;5.60;5.20;;;11.10;90.30;;;;;;5114962;27;20669;-63
2022/02/15 01:56:11;;;;;;;5.18;4.68;;;11.20;90.50;;;;;;5115572;27;20357;-62
2022/02/15 01:58:38;;;;;;;9.10;6.05;;;11.10;90.40;;;;;;5115094;27;20233;-62
2022/02/15 02:01:06;;;;;;;4.95;4.47;;;11.10;90.50;;;;;;5115508;27;20231;-62
2022/02/15 02:03:33;;;;;;;12.20;7.78;;;11.10;90.60;;;;;;5111519;27;20224;-63
2022/02/15 02:05:59;;;;;;;20.35;16.05;;;11.10;90.70;;;;;;5112804;27;20223;-63
2022/02/15 02:08:29;;;;;;;34.10;21.00;;;11.10;90.80;;;;;;5113632;27;20508;-62
2022/02/15 02:10:56;;;;;;;16.98;12.13;;;11.10;91.30;;;;;;5113968;27;20558;-62
2022/02/15 02:13:23;;;;;;;12.88;8.40;;;11.10;91.00;;;;;;5113886;27;20219;-63
2022/02/15 02:15:50;;;;;;;6.80;5.53;;;11.10;91.10;;;;;;5114526;27;20222;-63
2022/02/15 02:18:18;;;;;;;6.88;6.18;;;11.10;91.30;;;;;;5114266;27;20219;-62
2022/02/15 02:20:46;;;;;;;5.45;4.95;;;11.10;91.40;;;;;;5114501;27;21028;-62
2022/02/15 02:23:16;;;;;;;7.55;5.20;;;11.10;91.50;;;;;;5114871;27;20223;-62
2022/02/15 02:25:44;;;;;;;6.30;5.18;;;11.00;91.60;;;;;;5094061;28;20226;-62
2022/02/15 02:28:11;;;;;;;9.20;4.72;;;11.00;91.70;;;;;;5095924;28;20211;-62
2022/02/15 02:30:39;;;;;;;5.28;4.43;;;10.90;91.80;;;;;;5114171;27;20245;-63
2022/02/15 02:33:06;;;;;;;10.05;7.55;;;10.90;92.00;;;;;;5114872;27;20244;-64
2022/02/15 02:35:34;;;;;;;7.93;6.13;;;10.90;92.10;;;;;;5114436;27;20226;-64
2022/02/15 02:38:00;;;;;;;5.50;5.00;;;10.90;92.20;;;;;;5114784;27;20222;-63
2022/02/15 02:40:29;;;;;;;6.18;4.10;;;10.80;92.40;;;;;;5114035;27;20243;-64
2022/02/15 02:42:55;;;;;;;17.25;11.20;;;10.80;92.60;;;;;;5114838;27;20535;-63
2022/02/15 02:45:23;;;;;;;11.73;8.18;;;10.70;92.70;;;;;;5114109;27;20223;-63
2022/02/15 02:47:51;;;;;;;11.63;8.60;;;10.70;92.80;;;;;;5114498;27;20291;-62
2022/02/15 02:50:20;;;;;;;12.95;10.82;;;10.70;93.00;;;;;;5114377;27;20211;-63
2022/02/15 02:52:47;;;;;;;8.75;6.95;;;10.70;93.10;;;;;;5113802;27;20222;-62
2022/02/15 02:55:14;;;;;;;7.50;6.63;;;10.70;93.30;;;;;;5114196;27;20227;-63
2022/02/15 02:57:43;;;;;;;8.85;6.68;;;10.70;93.30;;;;;;5113845;27;20311;-64
2022/02/15 03:00:13;;;;;;;7.10;4.85;;;10.70;93.40;;;;;;5112418;27;20227;-63
2022/02/15 03:02:40;;;;;;;7.13;5.47;;;10.70;93.50;;;;;;5093278;28;20249;-63
2022/02/15 03:05:07;;;;;;;6.70;5.20;;;10.70;93.60;;;;;;5110266;27;20223;-64
2022/02/15 03:07:35;;;;;;;7.18;6.03;;;10.70;93.70;;;;;;5113407;27;20223;-64
2022/02/15 03:10:02;;;;;;;6.60;5.60;;;10.70;93.70;;;;;;5114190;27;20321;-64
2022/02/15 03:12:28;;;;;;;5.05;4.55;;;10.70;93.90;;;;;;5113723;27;20215;-64
2022/02/15 03:14:56;;;;;;;5.00;4.35;;;10.70;94.00;;;;;;5113952;27;20233;-63
2022/02/15 03:17:23;;;;;;;5.95;5.18;;;10.60;94.00;;;;;;5113508;27;20294;-63
2022/02/15 03:19:51;;;;;;;4.25;3.95;;;10.60;94.10;;;;;;5113590;27;20214;-63
2022/02/15 03:22:19;;;;;;;6.00;5.05;;;10.60;94.10;;;;;;5113560;27;20259;-63
2022/02/15 03:24:46;;;;;;;6.63;4.95;;;10.60;94.20;;;;;;5113428;27;20226;-63
2022/02/15 03:27:13;;;;;;;6.55;4.40;;;10.60;94.30;;;;;;5113966;27;20215;-63
2022/02/15 03:29:40;;;;;;;5.75;4.75;;;10.60;94.40;;;;;;5113136;27;20227;-64
2022/02/15 03:32:08;;;;;;;5.85;4.68;;;10.60;94.50;;;;;;5113665;27;20222;-64
2022/02/15 03:34:35;;;;;;;5.32;4.65;;;10.60;94.50;;;;;;5113276;27;20234;-63
2022/02/15 03:37:02;;;;;;;5.03;4.55;;;10.60;94.50;;;;;;5113538;27;20223;-63
2022/02/15 03:39:29;;;;;;;11.40;9.15;;;10.60;94.60;;;;;;5112989;27;20219;-62
2022/02/15 03:44:40;;;;;;;15.30;11.00;;;10.60;94.80;;;;;;5112957;27;20244;-63
2022/02/15 03:47:09;;;;;;;8.93;7.45;;;10.50;94.90;;;;;;5113432;27;20223;-63
2022/02/15 03:49:36;;;;;;;28.45;16.70;;;10.60;94.90;;;;;;5112768;27;20216;-63
2022/02/15 03:52:04;;;;;;;10.10;8.68;;;10.60;95.00;;;;;;5113157;27;20231;-64
2022/02/15 03:54:32;;;;;;;26.13;18.00;;;10.60;95.10;;;;;;5112758;27;20258;-64
2022/02/15 03:56:59;;;;;;;16.15;12.82;;;10.60;95.10;;;;;;5113245;27;20215;-64
2022/02/15 03:59:26;;;;;;;21.40;12.40;;;10.60;95.10;;;;;;5113154;27;20233;-64
2022/02/15 04:01:53;;;;;;;10.13;8.15;;;10.50;95.20;;;;;;5096405;27;20223;-64
2022/02/15 04:04:21;;;;;;;7.95;6.00;;;10.50;95.30;;;;;;5105852;27;20595;-64
2022/02/15 04:06:48;;;;;;;16.63;9.85;;;10.50;95.40;;;;;;5112712;27;20219;-64
2022/02/15 04:09:15;;;;;;;7.65;6.57;;;10.50;95.40;;;;;;5112861;27;20223;-63
2022/02/15 04:11:41;;;;;;;20.98;16.00;;;10.50;95.60;;;;;;5112606;27;20245;-64
2022/02/15 04:14:08;;;;;;;8.40;6.93;;;10.50;95.70;;;;;;5112967;27;20222;-64
2022/02/15 04:16:37;;;;;;;10.68;7.30;;;10.50;95.80;;;;;;5112565;27;20226;-64
2022/02/15 04:19:04;;;;;;;7.25;5.80;;;10.50;96.00;;;;;;5113215;27;20215;-64
2022/02/15 04:21:32;;;;;;;7.30;5.43;;;10.40;96.10;;;;;;5112292;27;20219;-64
2022/02/15 04:23:59;;;;;;;8.82;7.00;;;10.40;96.10;;;;;;5112752;27;20226;-64
2022/02/15 04:26:26;;;;;;;20.20;14.82;;;10.40;96.40;;;;;;5112856;27;20239;-63
2022/02/15 04:28:54;;;;;;;57.95;32.05;;;10.40;96.40;;;;;;5111958;27;20219;-62
2022/02/15 04:31:21;;;;;;;14.02;10.13;;;10.40;96.60;;;;;;5112235;27;20223;-63
2022/02/15 04:33:49;;;;;;;7.97;6.68;;;10.40;96.70;;;;;;5111836;27;20246;-63
2022/02/15 04:36:16;;;;;;;13.10;10.43;;;10.40;96.70;;;;;;5112615;27;20219;-63
2022/02/15 04:38:44;;;;;;;11.43;9.30;;;10.40;96.90;;;;;;5112417;27;20598;-63
2022/02/15 04:41:12;;;;;;;17.25;9.85;;;10.40;97.00;;;;;;5112586;27;20371;-63
2022/02/15 04:43:39;;;;;;;5.70;5.20;;;10.30;97.10;;;;;;5112166;27;20231;-63
2022/02/15 04:46:08;;;;;;;6.55;4.85;;;10.30;97.20;;;;;;5112819;27;20305;-63
2022/02/15 04:48:36;;;;;;;7.45;6.07;;;10.30;97.30;;;;;;5112168;27;20432;-63
2022/02/15 04:51:05;;;;;;;9.27;6.80;;;10.30;97.30;;;;;;5112233;27;20219;-62
2022/02/15 04:53:33;;;;;;;6.68;5.82;;;10.30;97.40;;;;;;5111990;27;20684;-63
2022/02/15 04:56:02;;;;;;;8.63;5.65;;;10.30;97.40;;;;;;5112431;27;20669;-64
2022/02/15 04:58:29;;;;;;;12.40;8.98;;;10.30;97.40;;;;;;5112434;27;20552;-64
2022/02/15 05:00:56;;;;;;;41.25;22.33;;;10.30;97.50;;;;;;5103809;27;20234;-62
2022/02/15 05:03:23;;;;;;;30.58;15.93;;;10.30;97.60;;;;;;5093593;28;20449;-63
2022/02/15 05:05:50;;;;;;;15.30;9.18;;;10.30;97.70;;;;;;5111939;27;20220;-64
2022/02/15 05:08:17;;;;;;;7.65;6.38;;;10.30;97.70;;;;;;5112432;27;20317;-64
2022/02/15 05:10:44;;;;;;;11.93;9.10;;;10.30;97.80;;;;;;5112054;27;20238;-64
2022/02/15 05:13:12;;;;;;;5.95;5.03;;;10.30;97.90;;;;;;5112468;27;20223;-63
2022/02/15 05:15:39;;;;;;;18.42;11.18;;;10.30;98.00;;;;;;5112057;27;20233;-63
2022/02/15 05:18:07;;;;;;;7.35;5.57;;;10.30;98.00;;;;;;5112365;27;20616;-63
2022/02/15 05:20:34;;;;;;;9.55;7.72;;;10.30;98.10;;;;;;5111732;27;20242;-63
2022/02/15 05:23:01;;;;;;;12.23;7.85;;;10.30;98.10;;;;;;5112324;27;20228;-64
2022/02/15 05:25:28;;;;;;;5.72;5.13;;;10.20;98.20;;;;;;5111991;27;20219;-63
2022/02/15 05:27:58;;;;;;;35.22;25.88;;;10.20;98.20;;;;;;5111914;27;20227;-63
2022/02/15 05:30:26;;;;;;;23.27;17.95;;;10.20;98.30;;;;;;5112085;27;20238;-63
2022/02/15 05:32:53;;;;;;;16.33;11.07;;;10.30;98.40;;;;;;5111725;27;20245;-64
2022/02/15 05:35:20;;;;;;;12.80;10.45;;;10.20;98.50;;;;;;5112220;27;20215;-64
2022/02/15 05:37:47;;;;;;;17.52;11.60;;;10.20;98.60;;;;;;5111843;27;20223;-64
2022/02/15 05:40:16;;;;;;;20.35;14.45;;;10.20;98.60;;;;;;5112186;27;20683;-64
2022/02/15 05:42:43;;;;;;;13.65;10.40;;;10.20;98.60;;;;;;5114965;27;20316;-64
2022/02/15 05:45:11;;;;;;;11.30;9.65;;;10.20;98.60;;;;;;5115370;27;20234;-64
2022/02/15 05:47:39;;;;;;;13.60;8.80;;;10.20;98.60;;;;;;5115172;27;20235;-64
2022/02/15 05:52:51;;;;;;;16.77;11.45;;;10.20;98.80;;;;;;5115376;27;20251;-64
2022/02/15 05:55:17;;;;;;;14.38;9.50;;;10.20;98.80;;;;;;5115496;27;20219;-65
2022/02/15 05:57:44;;;;;;;18.85;12.68;;;10.20;99.20;;;;;;5115143;27;20257;-63
2022/02/15 06:00:14;;;;;;;12.68;9.38;;;10.20;98.90;;;;;;5113600;27;20222;-63
2022/02/15 06:02:43;;;;;;;8.88;7.18;;;10.30;98.90;;;;;;5094567;28;20227;-63
2022/02/15 06:05:09;;;;;;;26.45;17.42;;;10.20;98.90;;;;;;5095042;28;20224;-63
2022/02/15 06:07:36;;;;;;;13.80;9.70;;;10.20;99.00;;;;;;5094950;28;20353;-63
2022/02/15 06:10:04;;;;;;;22.35;16.80;;;10.20;99.00;;;;;;5094489;28;20230;-63
2022/02/15 06:12:31;;;;;;;9.00;7.90;;;10.30;99.20;;;;;;5094668;28;20298;-63
2022/02/15 06:14:58;;;;;;;13.57;11.15;;;10.20;99.10;;;;;;5094391;28;20227;-63
2022/02/15 06:17:25;;;;;;;13.32;9.68;;;10.20;99.20;;;;;;5094701;28;20294;-64
2022/02/15 06:19:53;;;;;;;10.30;7.88;;;10.20;99.20;;;;;;5094119;28;20230;-63
2022/02/15 06:22:20;;;;;;;8.27;6.25;;;10.20;99.20;;;;;;5094613;28;20250;-64
2022/02/15 06:24:47;;;;;;;7.88;6.10;;;10.20;99.60;;;;;;5094122;28;20685;-63
2022/02/15 06:27:13;;;;;;;10.20;6.13;;;10.20;99.30;;;;;;5094551;28;20224;-63
2022/02/15 06:29:40;;;;;;;12.40;8.32;;;10.10;99.30;;;;;;5094049;28;20694;-63
2022/02/15 06:32:08;;;;;;;12.93;8.45;;;10.20;99.40;;;;;;5110804;27;20283;-63
2022/02/15 06:34:35;;;;;;;10.02;6.20;;;10.20;99.40;;;;;;5114902;27;20219;-63
2022/02/15 06:37:04;;;;;;;6.72;5.60;;;10.20;99.50;;;;;;5114475;27;20229;-63
2022/02/15 06:39:30;;;;;;;6.28;5.45;;;10.20;99.40;;;;;;5114659;27;20598;-63
2022/02/15 06:41:57;;;;;;;8.40;6.85;;;10.20;99.40;;;;;;5114079;27;20219;-63
2022/02/15 06:44:24;;;;;;;16.92;10.00;;;10.20;99.40;;;;;;5114857;27;20215;-63
2022/02/15 06:46:51;;;;;;;10.27;8.23;;;10.20;99.40;;;;;;5114385;27;20440;-63
2022/02/15 06:49:18;;;;;;;11.68;6.70;;;10.20;99.50;;;;;;5114650;27;20276;-63
2022/02/15 06:51:45;;;;;;;13.93;9.27;;;10.20;99.50;;;;;;5113726;27;20573;-64
2022/02/15 06:54:13;;;;;;;7.40;4.65;;;10.20;99.50;;;;;;5113510;27;20245;-63
2022/02/15 06:56:41;;;;;;;7.75;5.90;;;10.20;99.50;;;;;;5114677;27;20223;-63
2022/02/15 06:59:09;;;;;;;9.23;8.18;;;10.20;99.50;;;;;;5114175;27;20207;-63
2022/02/15 07:01:37;;;;;;;12.80;7.35;;;10.20;99.40;;;;;;5114022;27;20624;-63
2022/02/15 07:04:04;;;;;;;9.88;7.43;;;10.20;99.50;;;;;;5113941;27;20287;-63
2022/02/15 07:06:31;;;;;;;11.80;8.00;;;10.20;99.50;;;;;;5101726;27;20223;-63
2022/02/15 07:08:58;;;;;;;9.00;7.47;;;10.20;99.50;;;;;;5093346;28;20224;-63
2022/02/15 07:11:26;;;;;;;10.60;7.65;;;10.30;99.50;;;;;;5109599;27;20223;-64
2022/02/15 07:13:53;;;;;;;11.25;8.27;;;10.30;99.50;;;;;;5113250;27;20240;-64
2022/02/15 07:16:20;;;;;;;14.27;9.80;;;10.30;99.50;;;;;;5113638;27;20216;-64
2022/02/15 07:18:46;;;;;;;17.17;11.50;;;10.20;99.40;;;;;;5113375;27;20314;-63
2022/02/15 07:21:14;;;;;;;12.57;9.10;;;10.30;99.40;;;;;;5113576;27;20223;-63
2022/02/15 07:23:40;;;;;;;12.55;9.68;;;10.30;99.30;;;;;;5113784;27;20227;-64
2022/02/15 07:26:07;;;;;;;11.35;8.77;;;10.40;99.30;;;;;;5113649;27;20653;-65
2022/02/15 07:28:35;;;;;;;8.07;7.28;;;10.30;99.30;;;;;;5113890;27;20288;-63
2022/02/15 07:31:02;;;;;;;9.40;6.38;;;10.40;99.30;;;;;;5113219;27;20273;-63
2022/02/15 07:33:32;;;;;;;9.38;6.22;;;10.40;99.20;;;;;;5113868;27;20269;-63
2022/02/15 07:35:59;;;;;;;4.13;3.83;;;10.40;99.20;;;;;;5113313;27;20616;-63
2022/02/15 07:38:26;;;;;;;8.55;6.35;;;10.40;99.00;;;;;;5113701;27;20561;-63
2022/02/15 07:40:53;;;;;;;7.07;5.68;;;10.40;99.00;;;;;;5105011;27;20220;-63
2022/02/15 07:43:19;;;;;;;10.40;7.18;;;10.50;98.90;;;;;;5093126;28;20241;-64
2022/02/15 07:45:48;;;;;;;15.70;11.00;;;10.50;98.90;;;;;;5093326;28;20322;-63
2022/02/15 07:48:15;;;;;;;9.60;7.63;;;10.50;98.80;;;;;;5092779;28;20230;-64
2022/02/15 07:50:41;;;;;;;16.05;9.55;;;10.50;98.70;;;;;;5106055;27;20703;-64
2022/02/15 07:53:09;;;;;;;12.68;8.95;;;10.60;98.80;;;;;;5113113;27;20229;-64
2022/02/15 07:55:39;;;;;;;7.82;6.53;;;10.60;98.70;;;;;;5113254;27;20231;-63
2022/02/15 07:58:11;;;;;;;23.23;11.43;;;10.60;98.70;;;;;;5112564;27;20704;-63
2022/02/15 08:00:44;;;;;;;5.90;5.18;;;10.60;98.80;;;;;;5113157;27;20310;-63
2022/02/15 08:03:19;;;;;;;15.90;8.93;;;10.60;98.70;;;;;;5112457;27;20269;-64
2022/02/15 08:05:47;;;;;;;9.80;6.60;;;10.60;98.60;;;;;;5112867;27;20229;-64
2022/02/15 08:08:17;;;;;;;7.72;5.32;;;10.60;98.40;;;;;;5112591;27;20331;-64
2022/02/15 08:10:44;;;;;;;7.70;5.43;;;10.70;98.30;;;;;;5113090;27;20310;-63
2022/02/15 08:13:18;;;;;;;8.52;6.88;;;10.70;98.30;;;;;;5112650;27;20564;-64
2022/02/15 08:15:45;;;;;;;10.13;6.15;;;10.70;98.20;;;;;;5113082;27;20257;-63
2022/02/15 08:18:13;;;;;;;8.60;7.03;;;10.70;98.10;;;;;;5112645;27;20717;-64
2022/02/15 08:20:40;;;;;;;15.23;9.77;;;10.70;98.10;;;;;;5113084;27;20240;-64
2022/02/15 08:23:07;;;;;;;9.90;5.10;;;10.70;98.10;;;;;;5112387;27;20567;-63
2022/02/15 08:25:35;;;;;;;5.50;4.65;;;10.70;98.10;;;;;;5113216;27;20223;-63
2022/02/15 08:28:02;;;;;;;11.88;8.40;;;10.70;98.10;;;;;;5112381;27;20310;-64
2022/02/15 08:30:29;;;;;;;11.85;8.60;;;10.70;98.10;;;;;;5112983;27;20226;-64
2022/02/15 08:32:56;;;;;;;11.95;7.85;;;10.70;98.10;;;;;;5112543;27;20226;-64
2022/02/15 08:35:24;;;;;;;9.45;6.20;;;10.80;98.10;;;;;;5112922;27;20229;-64
2022/02/15 08:37:51;;;;;;;8.20;4.88;;;10.70;97.90;;;;;;5112774;27;20326;-63
2022/02/15 08:40:19;;;;;;;6.93;6.30;;;10.70;97.90;;;;;;5109180;27;20235;-64
2022/02/15 08:42:47;;;;;;;9.75;5.20;;;10.70;97.90;;;;;;5092406;28;20223;-64
2022/02/15 08:45:15;;;;;;;11.70;6.72;;;10.80;98.00;;;;;;5092003;28;20231;-64
2022/02/15 08:47:42;;;;;;;8.57;4.82;;;10.80;98.00;;;;;;5092722;28;20570;-63
2022/02/15 08:50:13;;;;;;;8.10;4.85;;;10.70;98.30;;;;;;5100357;27;20215;-63
2022/02/15 08:52:41;;;;;;;8.82;5.40;;;10.80;98.10;;;;;;5112618;27;20689;-64
2022/02/15 08:55:10;;;;;;;8.50;4.68;;;10.90;98.00;;;;;;5112255;27;20356;-64
2022/02/15 08:57:38;;;;;;;8.60;4.55;;;11.00;97.90;;;;;;5112670;27;20670;-64
2022/02/15 09:00:07;;;;;;;5.47;4.85;;;11.00;97.80;;;;;;5112263;27;20571;-63
2022/02/15 09:02:35;;;;;;;8.57;5.70;;;11.10;97.70;;;;;;5112595;27;20762;-63
2022/02/15 09:05:02;;;;;;;10.07;5.63;;;11.20;97.70;;;;;;5112353;27;20219;-63
2022/02/15 09:07:29;;;;;;;12.43;5.43;;;11.20;97.70;;;;;;5112535;27;20306;-63
2022/02/15 09:09:57;;;;;;;5.22;3.80;;;11.20;97.60;;;;;;5112197;27;20306;-61
2022/02/15 09:12:24;;;;;;;8.50;4.35;;;11.30;97.50;;;;;;5112410;27;20277;-63
2022/02/15 09:14:51;;;;;;;8.18;4.70;;;11.40;97.50;;;;;;5112418;27;20685;-64
2022/02/15 09:17:18;;;;;;;6.30;5.22;;;11.50;97.40;;;;;;5115601;27;20302;-63
2022/02/15 09:19:45;;;;;;;7.05;5.90;;;11.60;97.40;;;;;;5116336;27;20219;-64
2022/02/15 09:22:12;;;;;;;13.32;7.20;;;11.70;97.30;;;;;;5115796;27;20244;-62
2022/02/15 09:24:38;;;;;;;15.93;10.40;;;11.70;97.10;;;;;;5116366;27;20302;-64
2022/02/15 09:27:07;;;;;;;12.55;8.60;;;11.70;97.00;;;;;;5115803;27;20233;-64
2022/02/15 09:29:34;;;;;;;11.77;7.43;;;11.80;97.00;;;;;;5116399;27;20348;-64
2022/02/15 09:32:01;;;;;;;8.38;4.80;;;11.80;96.80;;;;;;5115737;27;20235;-64
2022/02/15 09:34:27;;;;;;;6.80;4.40;;;11.90;96.50;;;;;;5116175;27;20225;-63
2022/02/15 09:36:55;;;;;;;5.40;4.75;;;11.90;96.40;;;;;;5116242;27;20219;-64
2022/02/15 09:39:21;;;;;;;5.20;4.70;;;11.90;96.30;;;;;;5115644;27;20222;-64
2022/02/15 09:41:49;;;;;;;5.63;4.22;;;11.90;96.10;;;;;;5115786;27;20235;-63
2022/02/15 09:44:17;;;;;;;8.27;6.22;;;11.90;96.00;;;;;;5115589;27;20447;-63
2022/02/15 09:46:48;;;;;;;5.68;4.78;;;11.90;95.80;;;;;;5115731;27;20227;-64
2022/02/15 09:52:00;;;;;;;7.95;5.35;;;11.80;95.60;;;;;;5094926;28;20366;-63
2022/02/15 09:54:30;;;;;;;7.93;5.85;;;11.80;95.40;;;;;;5095179;28;20224;-63
2022/02/15 09:56:57;;;;;;;8.38;6.50;;;11.90;95.30;;;;;;5095445;28;20538;-63
2022/02/15 09:59:25;;;;;;;7.78;5.97;;;11.90;95.30;;;;;;5094985;28;20212;-64
2022/02/15 10:01:53;;;;;;;6.13;5.53;;;11.90;95.20;;;;;;5095193;28;20234;-64
2022/02/15 10:04:32;;;;;;;7.22;5.80;;;11.90;95.20;;;;;;5094634;28;20293;-64
2022/02/15 10:06:59;;;;;;;13.10;7.80;;;11.90;95.20;;;;;;5095088;28;20232;-63
2022/02/15 10:09:27;;;;;;;7.38;6.03;;;11.90;95.60;;;;;;5094660;28;20980;-63
2022/02/15 10:12:01;;;;;;;11.07;9.05;;;11.90;95.20;;;;;;5095045;28;20232;-63
2022/02/15 10:14:30;;;;;;;11.60;7.47;;;12.00;95.30;;;;;;5094881;28;20237;-63
2022/02/15 10:16:58;;;;;;;11.40;7.57;;;12.00;95.20;;;;;;5108815;27;20237;-63
2022/02/15 10:19:27;;;;;;;12.18;7.25;;;12.10;95.30;;;;;;5097831;27;20468;-63
2022/02/15 10:21:55;;;;;;;9.85;7.38;;;12.10;95.10;;;;;;5094905;28;20301;-63
2022/02/15 10:24:23;;;;;;;7.45;6.78;;;12.30;95.00;;;;;;5106192;27;20223;-63
2022/02/15 10:26:58;;;;;;;11.52;7.22;;;12.30;95.00;;;;;;5114524;27;20303;-64
2022/02/15 10:29:27;;;;;;;10.07;7.85;;;12.30;94.90;;;;;;5114568;27;20657;-64
2022/02/15 10:32:00;;;;;;;8.50;6.78;;;12.40;94.80;;;;;;5114985;27;20231;-63
2022/02/15 10:34:28;;;;;;;10.48;5.88;;;12.30;94.70;;;;;;5114743;27;20219;-63
2022/02/15 10:37:00;;;;;;;9.13;6.45;;;12.40;94.50;;;;;;5115124;27;20564;-64
2022/02/15 10:39:38;;;;;;;8.82;6.13;;;12.40;94.40;;;;;;5114525;27;20237;-63
2022/02/15 10:42:07;;;;;;;13.10;6.75;;;12.50;94.30;;;;;;5105158;27;20246;-64
2022/02/15 10:44:44;;;;;;;7.05;6.00;;;12.50;94.10;;;;;;5093857;28;21051;-64
2022/02/15 10:47:12;;;;;;;9.93;6.65;;;12.50;94.20;;;;;;5093997;28;20222;-63
2022/02/15 10:49:40;;;;;;;7.07;6.35;;;12.40;94.20;;;;;;5098460;27;20223;-63
2022/02/15 10:52:09;;;;;;;11.68;7.32;;;12.40;94.10;;;;;;5114001;27;20623;-63
2022/02/15 10:54:36;;;;;;;10.02;6.35;;;12.40;94.00;;;;;;5093787;28;20230;-63
2022/02/15 10:57:03;;;;;;;8.52;7.50;;;12.50;94.10;;;;;;5094107;28;20250;-64
2022/02/15 10:59:33;;;;;;;6.70;6.00;;;12.50;94.10;;;;;;5093753;28;20225;-64
2022/02/15 11:02:01;;;;;;;7.00;6.10;;;12.50;93.90;;;;;;5094070;28;20667;-64
2022/02/15 11:04:33;;;;;;;7.18;5.93;;;12.50;93.90;;;;;;5093323;28;20265;-63
2022/02/15 11:07:05;;;;;;;6.60;6.03;;;12.50;93.60;;;;;;5093844;28;20258;-62
2022/02/15 11:09:38;;;;;;;10.98;7.60;;;12.60;93.40;;;;;;5093449;28;20238;-63
2022/02/15 11:12:15;;;;;;;9.27;6.65;;;12.60;93.50;;;;;;5093757;28;20220;-62
2022/02/15 11:14:42;;;;;;;8.57;6.05;;;12.60;93.40;;;;;;5093734;28;20235;-63
2022/02/15 11:17:16;;;;;;;8.07;6.55;;;12.60;93.30;;;;;;5103170;27;20223;-63
2022/02/15 11:19:44;;;;;;;7.22;6.00;;;12.60;93.40;;;;;;5113634;27;20222;-63
2022/02/15 11:22:21;;;;;;;5.90;5.30;;;12.60;93.40;;;;;;5113626;27;20534;-63
2022/02/15 11:24:48;;;;;;;8.45;6.10;;;12.60;93.30;;;;;;5113576;27;20233;-64
2022/02/15 11:27:18;;;;;;;13.30;10.05;;;12.70;93.30;;;;;;5113435;27;20668;-63
2022/02/15 11:29:51;;;;;;;10.65;8.73;;;12.60;93.40;;;;;;5113097;27;20235;-63
2022/02/15 11:32:25;;;;;;;9.55;7.95;;;12.70;93.50;;;;;;5113610;27;20280;-63
2022/02/15 11:34:54;;;;;;;12.10;7.80;;;12.70;93.50;;;;;;5113089;27;20641;-63
2022/02/15 11:37:23;;;;;;;7.38;6.15;;;12.70;93.40;;;;;;5113442;27;20802;-63
2022/02/15 11:40:01;;;;;;;9.88;6.65;;;12.70;93.30;;;;;;5113030;27;20215;-63
2022/02/15 11:42:28;;;;;;;13.02;5.90;;;12.70;93.20;;;;;;5101494;27;20605;-63
2022/02/15 11:44:55;;;;;;;12.35;5.70;;;12.80;92.70;;;;;;5113324;27;21476;-64
2022/02/15 11:47:28;;;;;;;15.30;5.32;;;12.70;92.50;;;;;;5113740;27;20293;-64
2022/02/15 11:49:58;;;;;;;6.82;5.68;;;12.70;92.40;;;;;;5113012;27;20230;-64
2022/02/15 11:52:26;;;;;;;7.95;5.45;;;12.70;92.30;;;;;;5113398;27;20703;-64
2022/02/15 11:54:54;;;;;;;8.07;4.90;;;12.70;92.10;;;;;;5113045;27;20306;-64
2022/02/15 11:57:22;;;;;;;6.40;5.38;;;12.70;92.10;;;;;;5113652;27;20222;-64
2022/02/15 11:59:53;;;;;;;6.53;5.70;;;12.80;92.10;;;;;;5112532;27;20249;-64
2022/02/15 12:02:20;;;;;;;5.30;4.00;;;12.80;92.00;;;;;;5113216;27;20235;-64
2022/02/15 12:04:53;;;;;;;9.38;5.45;;;12.80;91.90;;;;;;5112783;27;20231;-64
2022/02/15 12:07:25;;;;;;;10.70;6.45;;;12.90;91.80;;;;;;5113001;27;20218;-64
2022/02/15 12:09:55;;;;;;;8.52;6.40;;;12.80;91.60;;;;;;5112696;27;20292;-64
2022/02/15 12:12:22;;;;;;;9.77;6.47;;;12.90;91.60;;;;;;5113236;27;20219;-64
2022/02/15 12:14:55;;;;;;;7.68;5.32;;;12.80;91.60;;;;;;5112857;27;20254;-63
2022/02/15 12:17:26;;;;;;;7.32;6.50;;;12.90;91.50;;;;;;5113057;27;20226;-63
2022/02/15 12:19:57;;;;;;;8.10;5.70;;;12.80;91.30;;;;;;5112683;27;20275;-63
2022/02/15 12:22:26;;;;;;;6.30;5.28;;;12.80;91.20;;;;;;5112512;27;20726;-63
2022/02/15 12:24:55;;;;;;;6.55;5.95;;;12.80;91.20;;;;;;5112340;27;20230;-64
2022/02/15 12:27:22;;;;;;;7.97;6.53;;;12.80;91.20;;;;;;5112859;27;20253;-63
2022/02/15 12:29:50;;;;;;;7.65;6.00;;;12.80;91.20;;;;;;5112121;27;20231;-63
2022/02/15 12:32:23;;;;;;;5.50;5.05;;;12.80;91.10;;;;;;5112816;27;20223;-63
2022/02/15 12:34:50;;;;;;;8.13;6.15;;;12.80;91.10;;;;;;5112320;27;20227;-63
2022/02/15 12:37:19;;;;;;;6.50;5.88;;;12.90;91.10;;;;;;5112755;27;20234;-63
2022/02/15 12:39:48;;;;;;;5.40;4.88;;;12.90;91.10;;;;;;5112270;27;20238;-63
2022/02/15 12:42:17;;;;;;;5.47;4.25;;;12.90;90.60;;;;;;5102244;27;20219;-63
2022/02/15 12:44:55;;;;;;;5.70;5.00;;;12.80;90.40;;;;;;5092036;28;20223;-63
2022/02/15 12:47:21;;;;;;;5.63;5.00;;;12.90;90.70;;;;;;5092523;28;20230;-63
2022/02/15 12:49:48;;;;;;;5.60;5.05;;;12.90;90.70;;;;;;5097487;27;20223;-63
2022/02/15 12:52:15;;;;;;;10.10;7.45;;;12.90;90.60;;;;;;5110129;27;20218;-63